Terminal Aerodrome Forecast
Issued by NWS

Home | Current Version | Previous Version | Graphics & Text | Print | Product List | Glossary On
Versions: 1 2 3 4 5 6 7 8 9 10 11 12 13
822
FTUS43 KMPX 031737
TAFRNH
TAF
KRNH 031737Z 0318/0418 28016G24KT P6SM SCT120 BKN250
     FM032100 29017G25KT P6SM VCSH BKN050 BKN100
      TEMPO 0321/0323 6SM -TSRA OVC050CB
     FM040000 33010G17KT P6SM SCT060
     FM040300 35007KT P6SM SKC
     FM041600 35015G21KT P6SM FEW250=

USA.gov is the U.S. government's official web portal to all federal, state and local government web resources and services.